sensor_id;sensor_type;location;lat;lon;timestamp;pressure;altitude;pressure_sealevel;temperature;humidity
76519;BME280;67029;51.054;13.798;2023-02-01T00:00:21;100130.48;;;7.88;61.00
76519;BME280;67029;51.054;13.798;2023-02-01T00:02:51;100125.42;;;7.91;60.87
76519;BME280;67029;51.054;13.798;2023-02-01T00:05:21;100128.70;;;7.90;60.64
76519;BME280;67029;51.054;13.798;2023-02-01T00:07:51;100121.88;;;7.90;60.56
76519;BME280;67029;51.054;13.798;2023-02-01T00:10:21;100129.98;;;7.84;60.67
76519;BME280;67029;51.054;13.798;2023-02-01T00:12:51;100138.68;;;7.81;60.67
76519;BME280;67029;51.054;13.798;2023-02-01T00:15:21;100146.73;;;7.84;60.57
76519;BME280;67029;51.054;13.798;2023-02-01T00:17:54;100136.49;;;7.84;60.46
76519;BME280;67029;51.054;13.798;2023-02-01T00:20:21;100133.96;;;7.82;60.55
76519;BME280;67029;51.054;13.798;2023-02-01T00:22:51;100145.32;;;7.80;60.53
76519;BME280;67029;51.054;13.798;2023-02-01T00:25:24;100132.83;;;7.77;60.70
76519;BME280;67029;51.054;13.798;2023-02-01T00:27:52;100142.58;;;7.74;60.94
76519;BME280;67029;51.054;13.798;2023-02-01T00:30:22;100142.45;;;7.68;61.18
76519;BME280;67029;51.054;13.798;2023-02-01T00:32:52;100142.73;;;7.77;61.10
76519;BME280;67029;51.054;13.798;2023-02-01T00:35:22;100137.44;;;7.79;61.02
76519;BME280;67029;51.054;13.798;2023-02-01T00:37:52;100150.10;;;7.69;61.23
76519;BME280;67029;51.054;13.798;2023-02-01T00:40:22;100147.97;;;7.75;61.25
76519;BME280;67029;51.054;13.798;2023-02-01T00:42:52;100143.97;;;7.82;61.06
76519;BME280;67029;51.054;13.798;2023-02-01T00:45:22;100152.55;;;7.83;61.07
76519;BME280;67029;51.054;13.798;2023-02-01T00:47:52;100140.39;;;7.77;61.09
76519;BME280;67029;51.054;13.798;2023-02-01T00:50:22;100157.16;;;7.69;61.41
76519;BME280;67029;51.054;13.798;2023-02-01T00:52:52;100152.67;;;7.78;61.09
76519;BME280;67029;51.054;13.798;2023-02-01T00:55:25;100141.03;;;7.84;60.86
76519;BME280;67029;51.054;13.798;2023-02-01T00:57:56;100152.07;;;7.81;60.70
76519;BME280;67029;51.054;13.798;2023-02-01T01:00:24;100149.70;;;7.83;60.56
76519;BME280;67029;51.054;13.798;2023-02-01T01:02:54;100140.98;;;7.73;60.51
76519;BME280;67029;51.054;13.798;2023-02-01T01:05:24;100141.94;;;7.71;60.24
76519;BME280;67029;51.054;13.798;2023-02-01T01:07:54;100159.92;;;7.69;60.19
76519;BME280;67029;51.054;13.798;2023-02-01T01:10:24;100150.09;;;7.69;60.24
76519;BME280;67029;51.054;13.798;2023-02-01T01:12:54;100143.41;;;7.62;60.35
76519;BME280;67029;51.054;13.798;2023-02-01T01:15:24;100144.50;;;7.64;60.25
76519;BME280;67029;51.054;13.798;2023-02-01T01:17:56;100148.66;;;7.74;60.29
76519;BME280;67029;51.054;13.798;2023-02-01T01:20:26;100139.91;;;7.84;59.73
76519;BME280;67029;51.054;13.798;2023-02-01T01:22:55;100142.57;;;7.77;59.67
76519;BME280;67029;51.054;13.798;2023-02-01T01:25:25;100136.49;;;7.80;59.81
76519;BME280;67029;51.054;13.798;2023-02-01T01:27:55;100141.69;;;7.70;59.48
76519;BME280;67029;51.054;13.798;2023-02-01T01:30:25;100136.45;;;7.73;59.62
76519;BME280;67029;51.054;13.798;2023-02-01T01:32:55;100144.72;;;7.70;59.61
76519;BME280;67029;51.054;13.798;2023-02-01T01:35:25;100129.30;;;7.59;59.62
76519;BME280;67029;51.054;13.798;2023-02-01T01:37:55;100141.27;;;7.53;59.74
76519;BME280;67029;51.054;13.798;2023-02-01T01:40:26;100139.08;;;7.49;59.59
76519;BME280;67029;51.054;13.798;2023-02-01T01:42:56;100134.72;;;7.51;59.42
76519;BME280;67029;51.054;13.798;2023-02-01T01:45:29;100139.62;;;7.59;59.24
76519;BME280;67029;51.054;13.798;2023-02-01T01:47:59;100134.50;;;7.57;59.34
76519;BME280;67029;51.054;13.798;2023-02-01T01:50:42;100131.80;;;7.62;59.02
76519;BME280;67029;51.054;13.798;2023-02-01T01:53:00;100127.89;;;7.70;58.79
76519;BME280;67029;51.054;13.798;2023-02-01T01:55:31;100130.69;;;7.68;58.76
76519;BME280;67029;51.054;13.798;2023-02-01T01:58:04;100137.22;;;7.71;58.61
76519;BME280;67029;51.054;13.798;2023-02-01T02:00:29;100129.30;;;7.75;58.58
76519;BME280;67029;51.054;13.798;2023-02-01T02:03:05;100135.28;;;7.68;58.50
76519;BME280;67029;51.054;13.798;2023-02-01T02:05:30;100122.93;;;7.67;58.48
76519;BME280;67029;51.054;13.798;2023-02-01T02:08:00;100128.89;;;7.71;58.52
76519;BME280;67029;51.054;13.798;2023-02-01T02:10:31;100126.95;;;7.76;58.33
76519;BME280;67029;51.054;13.798;2023-02-01T02:13:00;100134.07;;;7.79;58.10
76519;BME280;67029;51.054;13.798;2023-02-01T02:15:31;100127.33;;;7.79;58.04
76519;BME280;67029;51.054;13.798;2023-02-01T02:18:05;100125.44;;;7.72;57.71
76519;BME280;67029;51.054;13.798;2023-02-01T02:25:58;100119.08;;;7.66;57.96
76519;BME280;67029;51.054;13.798;2023-02-01T02:28:35;100118.05;;;7.71;57.79
76519;BME280;67029;51.054;13.798;2023-02-01T02:35:45;100111.06;;;7.68;57.35
76519;BME280;67029;51.054;13.798;2023-02-01T02:38:19;100108.14;;;7.70;57.17
76519;BME280;67029;51.054;13.798;2023-02-01T02:40:42;100106.49;;;7.74;57.16
76519;BME280;67029;51.054;13.798;2023-02-01T02:43:27;100099.98;;;7.83;57.11
76519;BME280;67029;51.054;13.798;2023-02-01T02:45:47;100092.57;;;7.83;56.90
76519;BME280;67029;51.054;13.798;2023-02-01T02:48:25;100098.27;;;7.73;56.78
76519;BME280;67029;51.054;13.798;2023-02-01T02:50:42;100093.69;;;7.66;57.16
76519;BME280;67029;51.054;13.798;2023-02-01T02:53:15;100099.09;;;7.61;57.41
76519;BME280;67029;51.054;13.798;2023-02-01T02:55:38;100106.73;;;7.78;57.19
76519;BME280;67029;51.054;13.798;2023-02-01T02:58:21;100097.63;;;7.95;56.33
76519;BME280;67029;51.054;13.798;2023-02-01T03:11:09;100112.44;;;7.68;57.03
76519;BME280;67029;51.054;13.798;2023-02-01T03:21:12;100108.83;;;8.38;54.96
76519;BME280;67029;51.054;13.798;2023-02-01T03:33:21;100113.65;;;7.77;56.75
76519;BME280;67029;51.054;13.798;2023-02-01T03:38:52;100094.57;;;7.74;56.96
76519;BME280;67029;51.054;13.798;2023-02-01T03:58:38;100084.69;;;8.52;54.33
76519;BME280;67029;51.054;13.798;2023-02-01T04:13:40;100073.06;;;7.82;56.21
76519;BME280;67029;51.054;13.798;2023-02-01T04:21:16;100062.36;;;7.72;56.36
76519;BME280;67029;51.054;13.798;2023-02-01T04:28:46;100051.47;;;7.66;56.41
76519;BME280;67029;51.054;13.798;2023-02-01T04:36:12;100049.35;;;7.66;56.22
76519;BME280;67029;51.054;13.798;2023-02-01T04:38:38;100047.40;;;7.71;56.10
76519;BME280;67029;51.054;13.798;2023-02-01T04:41:22;100052.53;;;7.72;56.00
76519;BME280;67029;51.054;13.798;2023-02-01T04:48:52;100047.84;;;7.67;56.00
76519;BME280;67029;51.054;13.798;2023-02-01T04:51:12;100038.42;;;7.67;56.14
76519;BME280;67029;51.054;13.798;2023-02-01T04:53:35;100034.88;;;7.71;55.98
76519;BME280;67029;51.054;13.798;2023-02-01T04:59:01;100019.84;;;7.68;56.03
76519;BME280;67029;51.054;13.798;2023-02-01T05:06:09;99996.96;;;7.70;55.85
76519;BME280;67029;51.054;13.798;2023-02-01T05:08:56;100009.06;;;7.67;55.89
76519;BME280;67029;51.054;13.798;2023-02-01T05:13:51;100004.88;;;7.77;55.68
76519;BME280;67029;51.054;13.798;2023-02-01T05:16:15;100003.44;;;7.88;55.45
76519;BME280;67029;51.054;13.798;2023-02-01T05:18:50;100001.66;;;7.90;55.09
76519;BME280;67029;51.054;13.798;2023-02-01T05:26:22;99981.22;;;7.82;55.01
76519;BME280;67029;51.054;13.798;2023-02-01T05:31:22;99978.56;;;7.86;54.86
76519;BME280;67029;51.054;13.798;2023-02-01T05:33:44;99984.70;;;7.86;54.81
76519;BME280;67029;51.054;13.798;2023-02-01T05:36:19;99971.20;;;7.92;54.73
76519;BME280;67029;51.054;13.798;2023-02-01T05:44:11;99973.15;;;7.91;55.03
76519;BME280;67029;51.054;13.798;2023-02-01T05:46:39;99970.31;;;7.89;54.66
76519;BME280;67029;51.054;13.798;2023-02-01T05:49:04;99980.36;;;7.82;54.86
76519;BME280;67029;51.054;13.798;2023-02-01T05:53:50;99977.03;;;7.91;55.00
76519;BME280;67029;51.054;13.798;2023-02-01T05:56:17;99968.47;;;7.86;54.96
76519;BME280;67029;51.054;13.798;2023-02-01T06:01:36;99977.31;;;7.85;54.76
76519;BME280;67029;51.054;13.798;2023-02-01T06:11:19;99972.23;;;7.78;55.72
76519;BME280;67029;51.054;13.798;2023-02-01T06:16:20;99970.36;;;8.02;55.00
76519;BME280;67029;51.054;13.798;2023-02-01T06:18:49;99978.29;;;8.18;54.26
76519;BME280;67029;51.054;13.798;2023-02-01T06:21:19;99966.48;;;8.14;54.29
76519;BME280;67029;51.054;13.798;2023-02-01T06:23:55;99970.59;;;8.04;54.64
76519;BME280;67029;51.054;13.798;2023-02-01T06:26:20;99957.08;;;7.92;54.49
76519;BME280;67029;51.054;13.798;2023-02-01T06:28:50;99990.39;;;7.83;54.97
76519;BME280;67029;51.054;13.798;2023-02-01T06:31:20;99967.27;;;7.78;55.21
76519;BME280;67029;51.054;13.798;2023-02-01T06:33:51;99960.59;;;7.75;55.14
76519;BME280;67029;51.054;13.798;2023-02-01T06:36:22;99967.27;;;7.81;55.28
76519;BME280;67029;51.054;13.798;2023-02-01T06:38:51;99961.75;;;7.77;55.47
76519;BME280;67029;51.054;13.798;2023-02-01T06:41:22;99970.08;;;7.76;55.44
76519;BME280;67029;51.054;13.798;2023-02-01T06:43:52;99974.76;;;7.70;55.71
76519;BME280;67029;51.054;13.798;2023-02-01T06:46:22;99966.28;;;7.65;56.04
76519;BME280;67029;51.054;13.798;2023-02-01T06:48:52;99970.46;;;7.58;56.64
76519;BME280;67029;51.054;13.798;2023-02-01T06:51:25;99964.45;;;7.63;56.88
76519;BME280;67029;51.054;13.798;2023-02-01T06:53:53;99968.23;;;7.64;56.93
76519;BME280;67029;51.054;13.798;2023-02-01T06:56:24;99955.95;;;7.66;56.93
76519;BME280;67029;51.054;13.798;2023-02-01T06:58:54;99960.27;;;7.62;56.99
76519;BME280;67029;51.054;13.798;2023-02-01T07:01:24;99961.83;;;7.65;57.02
76519;BME280;67029;51.054;13.798;2023-02-01T07:03:54;99969.39;;;7.65;57.08
76519;BME280;67029;51.054;13.798;2023-02-01T07:06:24;99947.69;;;7.67;57.16
76519;BME280;67029;51.054;13.798;2023-02-01T07:08:54;99950.40;;;7.76;57.00
76519;BME280;67029;51.054;13.798;2023-02-01T07:11:26;99954.69;;;7.74;57.05
76519;BME280;67029;51.054;13.798;2023-02-01T07:13:58;99953.02;;;7.76;57.26
76519;BME280;67029;51.054;13.798;2023-02-01T07:16:25;99946.94;;;7.78;57.67
76519;BME280;67029;51.054;13.798;2023-02-01T07:18:55;99947.48;;;7.83;57.82
76519;BME280;67029;51.054;13.798;2023-02-01T07:21:28;99946.23;;;7.88;57.89
76519;BME280;67029;51.054;13.798;2023-02-01T07:23:56;99948.75;;;7.90;58.12
76519;BME280;67029;51.054;13.798;2023-02-01T07:26:29;99952.53;;;7.82;59.29
76519;BME280;67029;51.054;13.798;2023-02-01T07:28:56;99956.86;;;7.76;59.92
76519;BME280;67029;51.054;13.798;2023-02-01T07:31:26;99943.55;;;7.59;60.48
76519;BME280;67029;51.054;13.798;2023-02-01T07:33:56;99953.16;;;7.56;60.77
76519;BME280;67029;51.054;13.798;2023-02-01T07:36:27;99953.12;;;7.50;61.59
76519;BME280;67029;51.054;13.798;2023-02-01T07:38:57;99939.59;;;7.45;62.06
76519;BME280;67029;51.054;13.798;2023-02-01T07:41:27;99942.19;;;7.38;61.98
76519;BME280;67029;51.054;13.798;2023-02-01T07:43:58;99943.91;;;7.44;61.97
76519;BME280;67029;51.054;13.798;2023-02-01T07:46:27;99932.59;;;7.50;61.89
76519;BME280;67029;51.054;13.798;2023-02-01T07:48:57;99926.22;;;7.59;61.28
76519;BME280;67029;51.054;13.798;2023-02-01T07:51:27;99932.59;;;7.53;61.11
76519;BME280;67029;51.054;13.798;2023-02-01T07:53:57;99926.69;;;7.55;61.24
76519;BME280;67029;51.054;13.798;2023-02-01T07:56:33;99926.41;;;7.57;61.16
76519;BME280;67029;51.054;13.798;2023-02-01T07:58:58;99916.22;;;7.49;61.06
76519;BME280;67029;51.054;13.798;2023-02-01T08:01:29;99920.05;;;7.51;61.06
76519;BME280;67029;51.054;13.798;2023-02-01T08:04:01;99912.02;;;7.49;60.71
76519;BME280;67029;51.054;13.798;2023-02-01T08:06:33;99918.10;;;7.44;60.47
76519;BME280;67029;51.054;13.798;2023-02-01T08:09:00;99923.62;;;7.46;60.52
76519;BME280;67029;51.054;13.798;2023-02-01T08:11:31;99910.39;;;7.41;60.51
76519;BME280;67029;51.054;13.798;2023-02-01T08:14:01;99916.31;;;7.49;60.50
76519;BME280;67029;51.054;13.798;2023-02-01T08:16:31;99910.45;;;7.53;60.59
76519;BME280;67029;51.054;13.798;2023-02-01T08:19:01;99916.57;;;7.58;60.28
76519;BME280;67029;51.054;13.798;2023-02-01T08:21:31;99907.11;;;7.64;60.23
76519;BME280;67029;51.054;13.798;2023-02-01T08:24:02;99912.55;;;7.54;60.36
76519;BME280;67029;51.054;13.798;2023-02-01T08:26:32;99906.22;;;7.49;60.72
76519;BME280;67029;51.054;13.798;2023-02-01T08:29:06;99907.77;;;7.41;61.31
76519;BME280;67029;51.054;13.798;2023-02-01T08:31:32;99896.07;;;7.35;61.95
76519;BME280;67029;51.054;13.798;2023-02-01T08:34:02;99897.30;;;7.41;61.74
76519;BME280;67029;51.054;13.798;2023-02-01T08:36:32;99888.58;;;7.46;61.50
76519;BME280;67029;51.054;13.798;2023-02-01T08:39:02;99884.78;;;7.48;61.32
76519;BME280;67029;51.054;13.798;2023-02-01T08:41:37;99890.25;;;7.48;60.80
76519;BME280;67029;51.054;13.798;2023-02-01T08:44:13;99880.72;;;7.49;60.50
76519;BME280;67029;51.054;13.798;2023-02-01T08:46:33;99877.66;;;7.56;59.91
76519;BME280;67029;51.054;13.798;2023-02-01T08:49:09;99873.33;;;7.61;59.41
76519;BME280;67029;51.054;13.798;2023-02-01T08:51:43;99875.94;;;7.59;58.86
76519;BME280;67029;51.054;13.798;2023-02-01T08:54:04;99880.29;;;7.62;58.28
76519;BME280;67029;51.054;13.798;2023-02-01T08:56:34;99866.92;;;7.62;57.89
76519;BME280;67029;51.054;13.798;2023-02-01T08:59:04;99872.78;;;7.55;57.98
76519;BME280;67029;51.054;13.798;2023-02-01T09:01:34;99861.14;;;7.59;57.81
76519;BME280;67029;51.054;13.798;2023-02-01T09:04:05;99868.52;;;7.62;57.62
76519;BME280;67029;51.054;13.798;2023-02-01T09:06:36;99870.16;;;7.74;57.53
76519;BME280;67029;51.054;13.798;2023-02-01T09:09:05;99855.96;;;7.83;57.18
76519;BME280;67029;51.054;13.798;2023-02-01T09:11:35;99858.27;;;7.89;56.95
76519;BME280;67029;51.054;13.798;2023-02-01T09:14:05;99855.47;;;7.91;56.99
76519;BME280;67029;51.054;13.798;2023-02-01T09:16:35;99871.00;;;7.93;56.95
76519;BME280;67029;51.054;13.798;2023-02-01T09:19:08;99872.05;;;7.98;56.93
76519;BME280;67029;51.054;13.798;2023-02-01T09:21:39;99861.52;;;7.99;57.03
76519;BME280;67029;51.054;13.798;2023-02-01T09:24:09;99871.08;;;8.00;57.21
76519;BME280;67029;51.054;13.798;2023-02-01T09:26:44;99862.41;;;7.94;57.24
76519;BME280;67029;51.054;13.798;2023-02-01T09:29:07;99873.55;;;7.91;57.72
76519;BME280;67029;51.054;13.798;2023-02-01T09:31:37;99877.41;;;7.90;58.06
76519;BME280;67029;51.054;13.798;2023-02-01T09:34:08;99882.68;;;7.93;58.79
76519;BME280;67029;51.054;13.798;2023-02-01T09:36:38;99861.45;;;7.95;59.42
76519;BME280;67029;51.054;13.798;2023-02-01T09:39:10;99863.22;;;7.88;59.64
76519;BME280;67029;51.054;13.798;2023-02-01T09:42:06;99866.69;;;7.96;59.68
76519;BME280;67029;51.054;13.798;2023-02-01T09:46:45;99887.13;;;7.95;60.32
76519;BME280;67029;51.054;13.798;2023-02-01T09:49:26;99892.68;;;7.86;61.36
76519;BME280;67029;51.054;13.798;2023-02-01T09:51:46;99882.81;;;7.81;62.14
76519;BME280;67029;51.054;13.798;2023-02-01T09:54:29;99909.54;;;7.82;62.71
76519;BME280;67029;51.054;13.798;2023-02-01T10:39:40;99943.06;;;7.04;66.59
76519;BME280;67029;51.054;13.798;2023-02-01T10:42:25;99938.65;;;6.96;66.98
76519;BME280;67029;51.054;13.798;2023-02-01T10:59:36;99928.30;;;7.63;64.85
76519;BME280;67029;51.054;13.798;2023-02-01T11:02:19;99938.83;;;7.62;64.31
76519;BME280;67029;51.054;13.798;2023-02-01T11:14:35;99950.77;;;9.58;57.77
76519;BME280;67029;51.054;13.798;2023-02-01T11:16:59;99946.60;;;9.34;57.60
76519;BME280;67029;51.054;13.798;2023-02-01T11:19:55;99956.12;;;8.99;58.13
76519;BME280;67029;51.054;13.798;2023-02-01T11:22:03;99945.28;;;8.68;58.93
76519;BME280;67029;51.054;13.798;2023-02-01T11:24:32;99956.02;;;8.42;60.20
76519;BME280;67029;51.054;13.798;2023-02-01T11:27:02;99945.10;;;8.22;60.79
76519;BME280;67029;51.054;13.798;2023-02-01T11:29:38;99948.65;;;8.19;61.18
76519;BME280;67029;51.054;13.798;2023-02-01T11:32:01;99945.99;;;8.23;61.14
76519;BME280;67029;51.054;13.798;2023-02-01T11:34:37;99944.92;;;8.21;61.13
76519;BME280;67029;51.054;13.798;2023-02-01T11:37:02;99936.73;;;8.25;60.95
76519;BME280;67029;51.054;13.798;2023-02-01T11:39:33;99934.06;;;8.24;60.68
76519;BME280;67029;51.054;13.798;2023-02-01T11:42:13;99934.44;;;8.26;60.52
76519;BME280;67029;51.054;13.798;2023-02-01T11:44:36;99934.23;;;8.36;60.20
76519;BME280;67029;51.054;13.798;2023-02-01T11:47:25;99923.34;;;8.42;59.98
76519;BME280;67029;51.054;13.798;2023-02-01T11:49:33;99912.39;;;8.35;59.77
76519;BME280;67029;51.054;13.798;2023-02-01T11:52:13;99917.80;;;8.43;60.12
76519;BME280;67029;51.054;13.798;2023-02-01T11:55:01;99922.28;;;8.37;59.96
76519;BME280;67029;51.054;13.798;2023-02-01T12:07:16;99906.56;;;8.34;60.54
76519;BME280;67029;51.054;13.798;2023-02-01T12:14:48;99901.66;;;8.41;60.07
76519;BME280;67029;51.054;13.798;2023-02-01T12:24:54;99890.06;;;8.66;58.84
76519;BME280;67029;51.054;13.798;2023-02-01T12:29:48;99890.27;;;8.64;58.53
76519;BME280;67029;51.054;13.798;2023-02-01T12:32:32;99893.79;;;8.63;58.50
76519;BME280;67029;51.054;13.798;2023-02-01T12:35:02;99896.73;;;8.65;58.29
76519;BME280;67029;51.054;13.798;2023-02-01T12:37:27;99887.86;;;8.61;57.89
76519;BME280;67029;51.054;13.798;2023-02-01T12:44:47;99877.10;;;8.53;57.91
76519;BME280;67029;51.054;13.798;2023-02-01T12:47:35;99884.06;;;8.47;58.22
76519;BME280;67029;51.054;13.798;2023-02-01T12:52:21;99884.27;;;8.44;58.29
76519;BME280;67029;51.054;13.798;2023-02-01T12:54:58;99882.02;;;8.42;58.62
76519;BME280;67029;51.054;13.798;2023-02-01T12:57:24;99879.33;;;8.42;58.67
76519;BME280;67029;51.054;13.798;2023-02-01T13:00:09;99872.70;;;8.52;58.53
76519;BME280;67029;51.054;13.798;2023-02-01T13:05:22;99868.13;;;8.75;58.17
76519;BME280;67029;51.054;13.798;2023-02-01T13:07:21;99872.45;;;8.74;58.19
76519;BME280;67029;51.054;13.798;2023-02-01T13:09:59;99866.81;;;8.84;58.01
76519;BME280;67029;51.054;13.798;2023-02-01T13:12:36;99873.34;;;8.88;57.91
76519;BME280;67029;51.054;13.798;2023-02-01T13:14:55;99875.87;;;8.87;57.74
76519;BME280;67029;51.054;13.798;2023-02-01T13:17:22;99873.75;;;8.89;57.69
76519;BME280;67029;51.054;13.798;2023-02-01T13:22:30;99871.53;;;8.90;57.52
76519;BME280;67029;51.054;13.798;2023-02-01T13:24:58;99871.02;;;8.96;57.46
76519;BME280;67029;51.054;13.798;2023-02-01T13:27:22;99870.87;;;8.96;57.15
76519;BME280;67029;51.054;13.798;2023-02-01T13:29:58;99867.14;;;8.91;57.04
76519;BME280;67029;51.054;13.798;2023-02-01T13:42:30;99853.91;;;9.03;56.02
76519;BME280;67029;51.054;13.798;2023-02-01T13:45:05;99841.79;;;9.13;55.57
76519;BME280;67029;51.054;13.798;2023-02-01T13:50:04;99842.23;;;9.17;55.06
76519;BME280;67029;51.054;13.798;2023-02-01T13:52:38;99841.62;;;9.29;54.84
76519;BME280;67029;51.054;13.798;2023-02-01T13:57:38;99839.66;;;9.41;54.20
76519;BME280;67029;51.054;13.798;2023-02-01T14:00:06;99836.64;;;9.39;53.53
76519;BME280;67029;51.054;13.798;2023-02-01T14:02:46;99843.12;;;9.40;53.42
76519;BME280;67029;51.054;13.798;2023-02-01T14:04:58;99832.28;;;9.33;53.28
76519;BME280;67029;51.054;13.798;2023-02-01T14:07:28;99824.14;;;9.26;53.37
76519;BME280;67029;51.054;13.798;2023-02-01T14:09:58;99841.02;;;9.26;53.54
76519;BME280;67029;51.054;13.798;2023-02-01T14:12:49;99842.11;;;9.19;53.30
76519;BME280;67029;51.054;13.798;2023-02-01T14:15:19;99830.95;;;9.16;53.19
76519;BME280;67029;51.054;13.798;2023-02-01T14:17:33;99832.79;;;9.18;53.45
76519;BME280;67029;51.054;13.798;2023-02-01T14:20:39;99832.14;;;9.22;53.20
76519;BME280;67029;51.054;13.798;2023-02-01T14:25:00;99819.80;;;9.23;52.29
76519;BME280;67029;51.054;13.798;2023-02-01T14:27:35;99820.17;;;9.25;52.64
76519;BME280;67029;51.054;13.798;2023-02-01T14:30:11;99811.69;;;9.19;52.37
76519;BME280;67029;51.054;13.798;2023-02-01T14:32:37;99820.92;;;9.21;52.15
76519;BME280;67029;51.054;13.798;2023-02-01T14:35:23;99827.98;;;9.17;52.16
76519;BME280;67029;51.054;13.798;2023-02-01T14:37:37;99823.73;;;9.14;52.24
76519;BME280;67029;51.054;13.798;2023-02-01T14:40:19;99822.86;;;9.21;52.19
76519;BME280;67029;51.054;13.798;2023-02-01T14:42:47;99814.80;;;9.24;51.95
76519;BME280;67029;51.054;13.798;2023-02-01T14:47:39;99819.29;;;9.18;52.32
76519;BME280;67029;51.054;13.798;2023-02-01T14:55:15;99828.25;;;9.16;52.64
76519;BME280;67029;51.054;13.798;2023-02-01T14:57:40;99824.59;;;9.14;52.72
76519;BME280;67029;51.054;13.798;2023-02-01T15:00:26;99823.88;;;9.11;52.77
76519;BME280;67029;51.054;13.798;2023-02-01T15:10:14;99824.59;;;8.97;52.89
76519;BME280;67029;51.054;13.798;2023-02-01T15:12:40;99806.53;;;8.88;52.76
76519;BME280;67029;51.054;13.798;2023-02-01T15:20:33;99798.02;;;8.87;53.33
76519;BME280;67029;51.054;13.798;2023-02-01T15:25:27;99808.67;;;9.00;53.84
76519;BME280;67029;51.054;13.798;2023-02-01T15:28:20;99811.44;;;9.14;53.99
76519;BME280;67029;51.054;13.798;2023-02-01T15:32:47;99791.34;;;8.94;54.78
76519;BME280;67029;51.054;13.798;2023-02-01T15:35:49;99780.62;;;8.78;55.23
76519;BME280;67029;51.054;13.798;2023-02-01T16:53:02;99748.59;;;10.32;53.91
76519;BME280;67029;51.054;13.798;2023-02-01T16:55:35;99730.67;;;9.83;55.68
76519;BME280;67029;51.054;13.798;2023-02-01T16:58:03;99732.97;;;9.37;56.92
76519;BME280;67029;51.054;13.798;2023-02-01T17:00:45;99752.00;;;9.14;57.37
76519;BME280;67029;51.054;13.798;2023-02-01T17:50:42;99827.20;;;8.28;57.34
76519;BME280;67029;51.054;13.798;2023-02-01T17:53:01;99829.82;;;7.82;58.73
76519;BME280;67029;51.054;13.798;2023-02-01T17:55:32;99833.36;;;7.35;59.72
76519;BME280;67029;51.054;13.798;2023-02-01T18:23:23;99863.74;;;7.40;60.77
76519;BME280;67029;51.054;13.798;2023-02-01T18:25:39;99862.52;;;7.15;61.85
76519;BME280;67029;51.054;13.798;2023-02-01T18:31:01;99865.16;;;6.83;62.62
76519;BME280;67029;51.054;13.798;2023-02-01T18:33:11;99862.97;;;6.81;62.73
76519;BME280;67029;51.054;13.798;2023-02-01T18:35:40;99863.14;;;6.83;63.07
76519;BME280;67029;51.054;13.798;2023-02-01T18:38:19;99863.16;;;6.81;63.04
76519;BME280;67029;51.054;13.798;2023-02-01T18:45:56;99874.70;;;6.71;63.56
76519;BME280;67029;51.054;13.798;2023-02-01T19:28:29;99869.77;;;8.36;57.18
76519;BME280;67029;51.054;13.798;2023-02-01T19:44:05;99882.17;;;8.72;56.33
76519;BME280;67029;51.054;13.798;2023-02-01T20:13:32;99889.91;;;7.60;59.43
76519;BME280;67029;51.054;13.798;2023-02-01T20:19:08;99894.52;;;7.28;60.97
76519;BME280;67029;51.054;13.798;2023-02-01T21:26:27;99937.55;;;8.75;56.13
76519;BME280;67029;51.054;13.798;2023-02-01T21:33:53;99944.31;;;7.47;60.12
76519;BME280;67029;51.054;13.798;2023-02-01T21:36:12;99945.55;;;7.25;60.98
76519;BME280;67029;51.054;13.798;2023-02-01T21:38:46;99942.64;;;7.17;61.02
76519;BME280;67029;51.054;13.798;2023-02-01T21:41:18;99949.64;;;7.15;61.52
76519;BME280;67029;51.054;13.798;2023-02-01T21:43:46;99940.78;;;7.05;61.57
76519;BME280;67029;51.054;13.798;2023-02-01T21:46:20;99948.09;;;6.93;62.23
76519;BME280;67029;51.054;13.798;2023-02-01T21:48:56;99944.95;;;6.77;62.56
76519;BME280;67029;51.054;13.798;2023-02-01T21:56:16;99942.20;;;6.56;63.83
76519;BME280;67029;51.054;13.798;2023-02-01T21:58:58;99944.28;;;6.57;63.84
76519;BME280;67029;51.054;13.798;2023-02-01T22:08:49;99953.16;;;6.61;64.12
76519;BME280;67029;51.054;13.798;2023-02-01T22:11:23;99957.22;;;6.55;64.10
76519;BME280;67029;51.054;13.798;2023-02-01T22:14:07;99957.64;;;6.49;64.27
76519;BME280;67029;51.054;13.798;2023-02-01T22:21:39;99959.50;;;6.70;64.28
76519;BME280;67029;51.054;13.798;2023-02-01T22:29:07;99959.86;;;7.37;62.59
76519;BME280;67029;51.054;13.798;2023-02-01T22:34:09;99958.12;;;7.26;62.57
76519;BME280;67029;51.054;13.798;2023-02-01T22:36:41;99951.99;;;7.13;62.81
76519;BME280;67029;51.054;13.798;2023-02-01T22:39:11;99965.19;;;6.98;63.17
76519;BME280;67029;51.054;13.798;2023-02-01T22:46:29;99960.61;;;6.88;63.36
76519;BME280;67029;51.054;13.798;2023-02-01T22:49:01;99966.09;;;6.84;63.60
76519;BME280;67029;51.054;13.798;2023-02-01T22:54:01;99959.70;;;6.83;63.62
76519;BME280;67029;51.054;13.798;2023-02-01T22:56:55;99907.97;;;6.83;63.67
76519;BME280;67029;51.054;13.798;2023-02-01T22:59:08;99956.90;;;6.75;63.84
76519;BME280;67029;51.054;13.798;2023-02-01T23:01:32;99955.04;;;6.75;63.92
76519;BME280;67029;51.054;13.798;2023-02-01T23:07:02;99952.01;;;6.76;63.63
76519;BME280;67029;51.054;13.798;2023-02-01T23:14:16;99957.84;;;6.88;62.92
76519;BME280;67029;51.054;13.798;2023-02-01T23:16:48;99959.52;;;6.87;62.87
76519;BME280;67029;51.054;13.798;2023-02-01T23:31:43;99978.41;;;6.92;62.09
76519;BME280;67029;51.054;13.798;2023-02-01T23:34:11;99983.52;;;6.97;61.89
76519;BME280;67029;51.054;13.798;2023-02-01T23:36:47;99981.70;;;7.06;61.67
76519;BME280;67029;51.054;13.798;2023-02-01T23:46:57;99988.44;;;7.19;61.48
76519;BME280;67029;51.054;13.798;2023-02-01T23:54:26;99985.30;;;7.24;61.33
